

Wyoming Mesonet
Water Resources Data System and State Climate Office
SEO WACNet, UW USACE UMRB, USDA-ARS, BLM
| Wind | Soil | |||||||||||||||||||
| Temp | Precip | Speed | Dir | Gust | Dir | Humidity | Pressure | Solar | Snow | Temperature (Deg F) | Moisture (%) | |||||||||
| Date Time (MST) | (F) | (in) | (mph) | (deg) | (mph) | (deg) | (%) | (Mbars) | (w/m^2) | (in) | 5cm | 10cm | 20cm | 50cm | 1m | 5cm | 10cm | 20cm | 50cm | 1m |
| 2026-08-30 00:00:00 | 64.29 | 0.00 | 4.26 | 296 | 6.83 | 281 | 90.0 | 891.0 | 0.0 | -0.6 | 77.36 | 76.46 | 73.22 | 70.70 | 67.46 | 20.5% | 22.9% | 26.9% | 30.2% | 21.2% |
| 2026-08-30 01:00:00 | 63.84 | 0.00 | 10.13 | 304 | 11.18 | 303 | 88.8 | 891.0 | 0.0 | -0.6 | 76.64 | 76.10 | 73.22 | 70.70 | 67.46 | 20.5% | 22.8% | 26.8% | 30.2% | 21.3% |
| 2026-08-30 02:00:00 | 63.01 | 0.00 | 6.42 | 312 | 11.43 | 300 | 88.7 | 891.0 | 0.0 | -0.7 | 75.92 | 75.74 | 73.22 | 70.70 | 67.28 | 20.4% | 22.8% | 26.8% | 30.2% | 21.2% |
| 2026-08-30 03:00:00 | 60.96 | 0.00 | 3.71 | 257 | 9.94 | 58 | 86.6 | 892.0 | 0.0 | -0.8 | 75.20 | 75.20 | 73.04 | 70.70 | 67.46 | 20.4% | 22.7% | 26.9% | 30.2% | 21.3% |
| 2026-08-30 04:00:00 | 63.19 | 0.00 | 3.34 | 298 | 6.83 | 318 | 81.5 | 892.0 | 0.0 | -0.7 | 74.66 | 74.84 | 73.04 | 70.70 | 67.28 | 20.4% | 22.7% | 26.9% | 30.1% | 21.1% |
| 2026-08-30 05:00:00 | 60.62 | 0.00 | 3.60 | 313 | 6.58 | 288 | 87.3 | 892.0 | 0.0 | -0.9 | 74.12 | 74.48 | 73.04 | 70.88 | 67.46 | 20.4% | 22.7% | 26.9% | 30.2% | 21.2% |
| 2026-08-30 06:00:00 | 60.01 | 0.00 | 6.69 | 289 | 9.32 | 292 | 88.6 | 892.0 | 49.7 | -0.7 | 73.58 | 74.12 | 72.86 | 70.70 | 67.46 | 20.4% | 22.6% | 26.8% | 30.3% | 21.2% |
| 2026-08-30 07:00:00 | 66.04 | 0.00 | 10.01 | 289 | 13.54 | 276 | 76.1 | 892.0 | 260.7 | -0.6 | 72.86 | 73.58 | 72.68 | 70.88 | 67.46 | 20.4% | 22.7% | 26.8% | 30.2% | 21.1% |
| 2026-08-30 08:00:00 | 70.50 | 0.00 | 6.37 | 279 | 11.55 | 282 | 63.2 | 892.0 | 432.9 | -0.6 | 72.50 | 73.04 | 72.50 | 70.70 | 67.46 | 20.3% | 22.7% | 26.8% | 30.2% | 21.2% |
| 2026-08-30 09:00:00 | 78.49 | 0.00 | 6.49 | 263 | 9.32 | 275 | 49.0 | 892.0 | 657.1 | -0.5 | 72.32 | 72.68 | 72.50 | 70.70 | 67.46 | 20.4% | 22.6% | 26.6% | 30.3% | 21.2% |
| 2026-08-30 10:00:00 | 80.24 | 0.00 | 5.38 | 236 | 7.95 | 231 | 40.3 | 892.0 | 732.8 | -0.7 | 73.04 | 72.68 | 72.32 | 70.70 | 67.46 | 20.4% | 22.6% | 26.7% | 30.1% | 21.2% |
| 2026-08-30 11:00:00 | 84.54 | 0.00 | 8.52 | 271 | 11.93 | 276 | 33.7 | 892.0 | 157.5 | -0.6 | 74.12 | 73.04 | 72.14 | 70.70 | 67.46 | 20.4% | 22.6% | 26.6% | 30.1% | 21.3% |
| 2026-08-30 12:00:00 | 87.80 | 0.00 | 8.24 | 278 | 16.65 | 280 | 27.4 | 892.0 | 816.0 | -0.7 | 75.74 | 73.76 | 72.14 | 70.70 | 67.46 | 20.4% | 22.6% | 26.8% | 30.1% | 21.2% |
| 2026-08-30 13:00:00 | 88.07 | 0.00 | 5.50 | 315 | 17.02 | 275 | 23.6 | 891.0 | 423.6 | -0.7 | 77.54 | 74.84 | 72.32 | 70.70 | 67.46 | 20.5% | 22.8% | 26.7% | 30.2% | 21.1% |
| 2026-08-30 14:00:00 | 87.93 | 0.00 | 15.99 | 262 | 28.70 | 245 | 23.1 | 891.0 | 210.2 | -0.8 | 78.98 | 75.74 | 72.32 | 70.70 | 67.46 | 20.5% | 22.8% | 26.7% | 30.2% | 21.1% |
| 2026-08-30 15:00:00 | 63.18 | 0.00 | 39.80 | 343 | 60.24 | 337 | 59.2 | 894.0 | 426.9 | -0.9 | 79.70 | 75.20 | 72.32 | 70.70 | 67.46 | 20.5% | 22.7% | 26.7% | 30.1% | 21.1% |
| 2026-08-30 16:00:00 | 62.46 | 0.00 | 26.24 | 342 | 46.95 | 349 | 62.7 | 894.0 | 218.8 | -0.8 | 79.34 | 75.20 | 72.32 | 70.70 | 67.28 | 20.5% | 22.7% | 26.7% | 30.2% | 21.2% |
| 2026-08-30 17:00:00 | 66.29 | 0.00 | 7.32 | 317 | 31.29 | 339 | 54.7 | 895.0 | 326.0 | -0.7 | 78.80 | 75.38 | 72.50 | 70.88 | 67.46 | 20.5% | 22.8% | 26.7% | 30.2% | 21.1% |
| 2026-08-30 18:00:00 | 65.37 | 0.00 | 11.09 | 328 | 18.01 | 300 | 48.7 | 895.0 | 97.5 | -0.9 | 78.08 | 75.38 | 72.50 | 70.88 | 67.46 | 20.5% | 22.7% | 26.8% | 30.1% | 21.2% |
| 2026-08-30 19:00:00 | 58.84 | 0.00 | 8.68 | 306 | 16.15 | 326 | 64.7 | 895.0 | 0.0 | -0.9 | 77.36 | 75.20 | 72.50 | 70.88 | 67.46 | 20.5% | 22.6% | 26.7% | 30.1% | 21.1% |
| 2026-08-30 20:00:00 | 54.97 | 0.00 | 7.30 | 290 | 11.55 | 307 | 73.6 | 895.0 | 0.0 | -0.9 | 76.46 | 75.02 | 72.32 | 70.88 | 67.46 | 20.5% | 22.7% | 26.7% | 30.1% | 21.2% |
| 2026-08-30 21:00:00 | 53.71 | 0.00 | 2.96 | 275 | 8.45 | 292 | 75.3 | 896.0 | 0.0 | -0.9 | 75.56 | 74.66 | 72.32 | 70.88 | 67.46 | 20.4% | 22.6% | 26.6% | 30.1% | 21.2% |
| 2026-08-30 22:00:00 | 53.92 | 0.00 | 2.61 | 323 | 4.72 | 234 | 77.4 | 896.0 | 0.0 | -1.0 | 74.48 | 74.12 | 72.32 | 70.88 | 67.46 | 20.4% | 22.6% | 26.7% | 30.2% | 21.2% |
| 2026-08-30 23:00:00 | 52.00 | 0.00 | 1.96 | 69 | 3.98 | 99 | 80.4 | 896.0 | 0.0 | -1.1 | 73.58 | 73.58 | 72.14 | 70.88 | 67.46 | 20.4% | 22.6% | 26.7% | 30.1% | 21.2% |